createdAt,value
2019-03-11T00:02:18.347Z,3.50
2019-03-11T00:04:57.357Z,3.40
2019-03-11T00:07:27.153Z,3.40
2019-03-11T00:09:56.294Z,3.40
2019-03-11T00:12:33.199Z,3.40
2019-03-11T00:15:02.510Z,3.40
2019-03-11T00:17:31.517Z,3.40
2019-03-11T00:20:09.544Z,3.40
2019-03-11T00:22:39.773Z,3.40
2019-03-11T00:25:15.427Z,3.30
2019-03-11T00:27:48.371Z,3.40
2019-03-11T00:30:17.390Z,3.40
2019-03-11T00:32:46.946Z,3.40
2019-03-11T00:35:20.379Z,3.30
2019-03-11T00:37:56.589Z,3.30
2019-03-11T00:40:30.067Z,3.30
2019-03-11T00:43:02.126Z,3.30
2019-03-11T00:45:31.459Z,3.30
2019-03-11T00:48:07.819Z,3.30
2019-03-11T00:50:38.285Z,3.40
2019-03-11T00:53:07.319Z,3.40
2019-03-11T00:55:42.028Z,3.40
2019-03-11T00:58:15.767Z,3.40
2019-03-11T01:00:55.605Z,3.40
2019-03-11T01:03:28.145Z,3.40
2019-03-11T01:05:57.266Z,3.40
2019-03-11T01:08:29.098Z,3.40
2019-03-11T01:10:58.069Z,3.40
2019-03-11T01:13:28.483Z,3.40
2019-03-11T01:16:01.937Z,3.40
2019-03-11T01:18:30.937Z,3.40
2019-03-11T01:21:04.547Z,3.40
2019-03-11T01:23:33.535Z,3.40
2019-03-11T01:26:07.469Z,3.40
2019-03-11T01:28:36.715Z,3.30
2019-03-11T01:31:08.562Z,3.40
2019-03-11T01:33:37.527Z,3.40
2019-03-11T01:36:08.497Z,3.40
2019-03-11T01:38:37.595Z,3.40
2019-03-11T01:41:12.929Z,3.30
2019-03-11T01:43:45.045Z,3.40
2019-03-11T01:46:14.016Z,3.40
2019-03-11T01:48:43.213Z,3.40
2019-03-11T01:51:13.672Z,3.40
2019-03-11T01:53:46.764Z,3.40
2019-03-11T01:56:21.799Z,3.40
2019-03-11T01:58:53.415Z,3.50
2019-03-11T02:01:22.477Z,3.40
2019-03-11T02:03:53.119Z,3.40
2019-03-11T02:06:23.308Z,3.40
2019-03-11T02:08:54.731Z,3.40
2019-03-11T02:11:26.885Z,3.40
2019-03-11T02:14:03.795Z,3.40
2019-03-11T02:16:32.801Z,3.40
2019-03-11T02:19:08.155Z,3.50
2019-03-11T02:21:46.135Z,3.40
2019-03-11T02:24:22.069Z,3.40
2019-03-11T02:26:52.634Z,3.40
2019-03-11T02:29:24.668Z,3.40
2019-03-11T02:31:56.813Z,3.40
2019-03-11T02:34:25.844Z,3.40
2019-03-11T02:36:54.893Z,3.30
2019-03-11T02:39:26.634Z,3.30
2019-03-11T02:42:04.802Z,3.30
2019-03-11T02:44:36.251Z,3.20
2019-03-11T02:47:10.782Z,3.10
2019-03-11T02:49:39.768Z,3.10
2019-03-11T02:52:12.199Z,3.10
2019-03-11T02:54:44.270Z,3.00
2019-03-11T02:57:17.448Z,3.00
2019-03-11T02:59:48.880Z,3.00
2019-03-11T03:02:23.394Z,2.90
2019-03-11T03:04:59.690Z,2.90
2019-03-11T03:07:33.120Z,2.90
2019-03-11T03:10:05.768Z,2.80
2019-03-11T03:12:40.389Z,2.80
2019-03-11T03:15:17.792Z,2.80
2019-03-11T03:17:50.276Z,2.80
2019-03-11T03:20:19.327Z,2.80
2019-03-11T03:22:54.757Z,2.80
2019-03-11T03:25:35.072Z,2.80
2019-03-11T03:28:06.916Z,2.90
2019-03-11T03:30:35.863Z,2.80
2019-03-11T03:33:12.143Z,2.80
2019-03-11T03:35:48.966Z,2.90
2019-03-11T03:38:30.560Z,2.90
2019-03-11T03:40:50.992Z,2.80
2019-03-11T03:43:20.020Z,2.90
2019-03-11T03:45:49.089Z,2.90
2019-03-11T03:48:20.448Z,2.90
2019-03-11T03:50:52.942Z,2.90
2019-03-11T03:53:21.915Z,2.90
2019-03-11T03:55:52.198Z,2.90
2019-03-11T03:58:23.956Z,2.90
2019-03-11T04:01:01.738Z,3.00
2019-03-11T04:03:35.867Z,3.00
2019-03-11T04:06:08.068Z,3.00
2019-03-11T04:08:37.152Z,3.00
2019-03-11T04:11:08.565Z,2.90
2019-03-11T04:13:45.727Z,3.00
2019-03-11T04:16:14.722Z,3.00
2019-03-11T04:18:51.041Z,3.00
2019-03-11T04:21:25.660Z,3.00
2019-03-11T04:23:58.655Z,3.10
2019-03-11T04:26:30.683Z,3.00
2019-03-11T04:28:59.849Z,3.00
2019-03-11T04:31:33.058Z,3.00
2019-03-11T04:34:02.117Z,3.10
2019-03-11T04:36:31.133Z,3.10
2019-03-11T04:39:00.180Z,3.10
2019-03-11T04:41:33.202Z,3.10
2019-03-11T04:44:06.992Z,3.10
2019-03-11T04:46:37.960Z,3.10
2019-03-11T04:49:11.191Z,3.10
2019-03-11T05:00:38.901Z,3.20
2019-03-11T05:03:07.911Z,3.20
2019-03-11T05:05:41.160Z,3.20
2019-03-11T05:08:10.143Z,3.30
2019-03-11T05:10:39.206Z,3.30
2019-03-11T05:13:08.343Z,3.30
2019-03-11T05:15:42.383Z,3.30
2019-03-11T05:18:11.788Z,3.30
2019-03-11T05:20:49.923Z,3.30
2019-03-11T05:23:19.009Z,3.40
2019-03-11T05:25:48.122Z,3.40
2019-03-11T05:28:19.469Z,3.40
2019-03-11T05:30:48.733Z,3.40
2019-03-11T05:33:17.982Z,3.40
2019-03-11T05:35:47.064Z,3.50
2019-03-11T05:38:20.059Z,3.50
2019-03-11T05:40:51.443Z,3.50
2019-03-11T05:43:22.891Z,3.50
2019-03-11T05:45:56.240Z,3.50
2019-03-11T05:48:25.685Z,3.50
2019-03-11T05:50:59.108Z,3.60
2019-03-11T05:53:35.741Z,3.60
2019-03-11T05:56:07.127Z,3.60
2019-03-11T05:58:46.204Z,3.60
2019-03-11T06:01:15.295Z,3.60
2019-03-11T06:03:50.213Z,3.70
2019-03-11T06:06:19.463Z,3.70
2019-03-11T06:08:48.911Z,3.70
2019-03-11T06:11:18.042Z,3.70
2019-03-11T06:13:47.601Z,3.70
2019-03-11T06:16:22.317Z,3.70
2019-03-11T06:18:52.653Z,3.80
2019-03-11T06:21:29.651Z,3.80
2019-03-11T06:23:59.378Z,3.80
2019-03-11T06:26:28.473Z,3.80
2019-03-11T06:29:03.547Z,3.80
2019-03-11T06:31:32.735Z,3.90
2019-03-11T06:34:09.121Z,3.90
2019-03-11T06:36:38.514Z,3.90
2019-03-11T06:39:08.129Z,3.90
2019-03-11T06:41:37.378Z,3.90
2019-03-11T06:44:07.597Z,3.90
2019-03-11T06:46:37.107Z,3.90
2019-03-11T06:49:06.438Z,4.00
2019-03-11T06:51:35.501Z,4.00
2019-03-11T06:54:05.610Z,4.00
2019-03-11T06:56:34.983Z,4.10
2019-03-11T06:59:12.235Z,4.20
2019-03-11T07:01:42.619Z,4.20
2019-03-11T07:04:16.424Z,4.10
2019-03-11T07:06:45.709Z,4.10
2019-03-11T07:09:18.109Z,4.10
2019-03-11T07:11:47.147Z,4.10
2019-03-11T07:14:17.241Z,4.10
2019-03-11T07:16:46.954Z,4.20
2019-03-11T07:19:17.753Z,4.20
2019-03-11T07:21:48.005Z,4.10
2019-03-11T07:24:20.473Z,4.10
2019-03-11T07:26:49.769Z,4.10
2019-03-11T07:29:20.678Z,4.20
2019-03-11T07:31:49.668Z,4.20
2019-03-11T07:34:20.239Z,4.30
2019-03-11T07:36:49.604Z,4.40
2019-03-11T07:39:18.788Z,4.50
2019-03-11T07:41:50.888Z,4.50
2019-03-11T07:44:21.091Z,4.50
2019-03-11T07:46:50.211Z,4.60
2019-03-11T07:49:23.523Z,4.60
2019-03-11T07:51:57.780Z,4.70
2019-03-11T07:54:35.461Z,4.90
2019-03-11T07:57:04.980Z,4.80
2019-03-11T07:59:35.914Z,4.80
2019-03-11T08:02:06.451Z,4.80
2019-03-11T08:04:35.554Z,4.70
2019-03-11T08:07:10.393Z,4.60
2019-03-11T08:09:43.736Z,4.60
2019-03-11T08:12:12.765Z,4.60
2019-03-11T08:14:42.019Z,4.80
2019-03-11T08:17:15.029Z,4.80
2019-03-11T08:19:46.885Z,4.70
2019-03-11T08:22:22.038Z,4.80
2019-03-11T08:24:51.179Z,4.80
2019-03-11T08:27:22.945Z,4.60
2019-03-11T08:29:52.088Z,4.60
2019-03-11T08:32:21.413Z,4.70
2019-03-11T08:34:50.492Z,4.80
2019-03-11T08:37:23.028Z,4.70
2019-03-11T08:39:52.059Z,4.80
2019-03-11T08:42:24.881Z,4.80
2019-03-11T08:44:54.061Z,4.70
2019-03-11T08:47:23.121Z,4.70
2019-03-11T08:49:58.125Z,4.70
2019-03-11T08:52:34.609Z,4.70
2019-03-11T08:55:12.743Z,4.70
2019-03-11T08:57:45.814Z,4.70
2019-03-11T09:00:16.656Z,4.60
2019-03-11T09:02:47.154Z,4.70
2019-03-11T09:05:18.896Z,4.80
2019-03-11T09:07:48.792Z,4.80
2019-03-11T09:10:20.835Z,4.80
2019-03-11T09:13:01.948Z,4.90
2019-03-11T09:15:44.460Z,4.80
2019-03-11T09:21:20.719Z,4.70
2019-03-11T09:23:52.682Z,4.70
2019-03-11T09:26:21.683Z,4.80
2019-03-11T09:28:51.269Z,4.80
2019-03-11T09:31:26.943Z,4.80
2019-03-11T09:33:58.670Z,4.90
2019-03-11T09:36:45.239Z,4.90
2019-03-11T09:39:17.248Z,5.00
2019-03-11T09:41:47.045Z,5.10
2019-03-11T09:44:18.660Z,5.20
2019-03-11T09:46:47.747Z,5.40
2019-03-11T09:49:17.591Z,5.60
2019-03-11T09:52:01.832Z,5.60
2019-03-11T09:54:30.941Z,5.70
2019-03-11T09:57:02.329Z,5.60
2019-03-11T09:59:32.667Z,5.80
2019-03-11T10:02:01.669Z,5.80
2019-03-11T10:04:30.956Z,5.60
2019-03-11T10:07:00.021Z,5.80
2019-03-11T10:09:29.825Z,5.80
2019-03-11T10:12:03.115Z,5.70
2019-03-11T10:14:32.093Z,5.70
2019-03-11T10:17:01.836Z,5.70
2019-03-11T10:19:30.827Z,5.80
2019-03-11T10:21:59.854Z,5.80
2019-03-11T10:24:28.819Z,5.70
2019-03-11T10:26:58.509Z,5.60
2019-03-11T10:29:27.770Z,5.50
2019-03-11T10:31:56.887Z,5.50
2019-03-11T10:34:26.784Z,5.60
2019-03-11T10:36:57.265Z,5.50
2019-03-11T10:39:28.238Z,5.50
2019-03-11T10:42:00.057Z,5.60
2019-03-11T10:44:31.003Z,5.80
2019-03-11T10:47:01.365Z,6.00
2019-03-11T10:49:32.433Z,6.40
2019-03-11T10:52:01.479Z,6.30
2019-03-11T10:54:34.056Z,6.10
2019-03-11T10:57:08.701Z,6.30
2019-03-11T10:59:38.804Z,6.30
2019-03-11T11:02:09.367Z,6.50
2019-03-11T11:04:40.345Z,6.90
2019-03-11T11:07:09.444Z,7.10
2019-03-11T11:09:39.297Z,6.80
2019-03-11T11:12:13.925Z,6.60
2019-03-11T11:14:42.993Z,6.40
2019-03-11T11:17:15.433Z,6.30
2019-03-11T11:19:47.816Z,6.40
2019-03-11T11:22:16.927Z,6.10
2019-03-11T11:24:48.405Z,6.00
2019-03-11T11:27:18.807Z,5.90
2019-03-11T11:29:49.481Z,5.60
2019-03-11T11:32:18.831Z,5.30
2019-03-11T11:34:48.026Z,5.10
2019-03-11T11:37:17.429Z,5.10
2019-03-11T11:39:46.595Z,5.00
2019-03-11T11:42:15.578Z,5.00
2019-03-11T11:44:44.641Z,5.00
2019-03-11T11:47:19.578Z,5.00
2019-03-11T11:49:51.189Z,4.80
2019-03-11T11:52:24.765Z,4.60
2019-03-11T11:54:53.826Z,4.50
2019-03-11T11:57:22.860Z,4.40
2019-03-11T11:59:54.423Z,4.40
2019-03-11T12:02:22.322Z,4.50
2019-03-11T12:04:53.055Z,4.50
2019-03-11T12:07:25.808Z,4.50
2019-03-11T12:10:00.601Z,4.50
2019-03-11T12:12:29.832Z,4.50
2019-03-11T12:14:59.776Z,4.50
2019-03-11T12:17:29.972Z,4.50
2019-03-11T12:19:59.896Z,4.60
2019-03-11T12:22:29.161Z,4.70
2019-03-11T12:24:58.305Z,4.90
2019-03-11T12:27:27.300Z,4.90
2019-03-11T12:29:57.110Z,5.10
2019-03-11T12:32:26.350Z,5.20
2019-03-11T12:34:58.259Z,5.10
2019-03-11T12:37:32.084Z,5.00
2019-03-11T12:40:02.037Z,5.00
2019-03-11T12:42:32.543Z,5.10
2019-03-11T12:45:04.346Z,5.10
2019-03-11T12:47:34.704Z,5.10
2019-03-11T12:50:04.118Z,5.10
2019-03-11T12:52:35.819Z,5.40
2019-03-11T12:55:10.195Z,5.40
2019-03-11T12:57:43.226Z,5.40
2019-03-11T13:00:17.322Z,5.60
2019-03-11T13:02:46.392Z,5.50
2019-03-11T13:05:17.059Z,5.50
2019-03-11T13:07:47.223Z,5.50
2019-03-11T13:10:19.125Z,5.50
2019-03-11T13:12:49.948Z,5.50
2019-03-11T13:15:19.738Z,5.60
2019-03-11T13:17:52.088Z,5.70
2019-03-11T13:20:25.791Z,5.80
2019-03-11T13:22:59.167Z,5.90
2019-03-11T13:25:33.095Z,5.90
2019-03-11T13:28:06.335Z,6.10
2019-03-11T13:30:35.342Z,6.10
2019-03-11T13:33:09.765Z,6.00
2019-03-11T13:35:38.813Z,6.00
2019-03-11T13:38:13.502Z,6.00
2019-03-11T13:40:42.538Z,5.90
2019-03-11T13:43:17.924Z,5.90
2019-03-11T13:45:47.016Z,5.90
2019-03-11T13:48:20.718Z,5.90
2019-03-11T13:50:57.345Z,5.90
2019-03-11T13:53:30.582Z,5.80
2019-03-11T13:56:00.832Z,5.60
2019-03-11T13:58:29.926Z,5.60
2019-03-11T14:00:59.134Z,5.60
2019-03-11T14:03:28.554Z,5.70
2019-03-11T14:11:42.390Z,6.20
2019-03-11T14:14:11.478Z,6.40
2019-03-11T14:16:40.543Z,6.30
2019-03-11T14:19:09.728Z,6.40
2019-03-11T14:21:38.907Z,6.30
2019-03-11T14:24:11.444Z,6.30
2019-03-11T14:26:42.359Z,6.70
2019-03-11T14:29:11.368Z,6.80
2019-03-11T14:31:40.638Z,6.90
2019-03-11T14:34:09.735Z,7.10
2019-03-11T14:36:46.558Z,7.00
2019-03-11T14:39:15.841Z,6.70
2019-03-11T14:41:51.754Z,7.00
2019-03-11T14:44:22.250Z,7.20
2019-03-11T14:46:51.342Z,7.80
2019-03-11T14:49:24.232Z,7.80
2019-03-11T14:51:53.296Z,7.60
2019-03-11T14:54:23.742Z,8.00
2019-03-11T14:56:55.004Z,8.00
2019-03-11T14:59:24.148Z,8.00
2019-03-11T15:01:53.214Z,7.50
2019-03-11T15:04:28.056Z,7.60
2019-03-11T15:06:57.056Z,7.50
2019-03-11T15:09:33.208Z,7.50
2019-03-11T15:12:02.262Z,7.70
2019-03-11T15:14:33.653Z,7.50
2019-03-11T15:17:00.507Z,7.40
2019-03-11T15:19:29.652Z,7.30
2019-03-11T15:21:58.725Z,7.30
2019-03-11T15:24:29.298Z,7.10
2019-03-11T15:26:58.365Z,7.10
2019-03-11T15:29:29.364Z,7.10
2019-03-11T15:32:03.378Z,6.90
2019-03-11T15:34:33.328Z,6.80
2019-03-11T15:37:02.669Z,6.60
2019-03-11T15:39:31.878Z,6.60
2019-03-11T15:42:02.700Z,6.60
2019-03-11T15:44:31.857Z,6.60
2019-03-11T15:47:00.932Z,6.50
2019-03-11T15:49:30.104Z,6.50
2019-03-11T15:52:08.332Z,6.60
2019-03-11T15:54:37.600Z,6.70
2019-03-11T15:57:06.702Z,6.80
2019-03-11T15:59:36.274Z,6.70
2019-03-11T16:02:07.342Z,6.60
2019-03-11T16:04:38.724Z,6.60
2019-03-11T16:07:07.771Z,6.60
2019-03-11T16:09:37.290Z,6.60
2019-03-11T16:12:06.420Z,6.60
2019-03-11T16:14:36.011Z,6.70
2019-03-11T16:17:05.158Z,6.70
2019-03-11T16:19:35.548Z,6.60
2019-03-11T16:22:05.426Z,6.50
2019-03-11T16:24:39.761Z,6.30
2019-03-11T16:27:11.742Z,6.30
2019-03-11T16:29:42.300Z,6.20
2019-03-11T16:32:12.166Z,6.10
2019-03-11T16:34:43.667Z,6.10
2019-03-11T16:37:13.164Z,6.10
2019-03-11T16:39:45.911Z,6.20
2019-03-11T16:42:16.430Z,6.20
2019-03-11T16:44:45.544Z,6.10
2019-03-11T16:47:14.702Z,6.10
2019-03-11T16:49:46.920Z,6.10
2019-03-11T16:52:17.199Z,6.10
2019-03-11T16:54:47.077Z,6.10
2019-03-11T16:57:16.034Z,6.10
2019-03-11T16:59:47.790Z,6.00
2019-03-11T17:02:18.798Z,6.00
2019-03-11T17:04:57.226Z,6.00
2019-03-11T17:07:28.694Z,6.00
2019-03-11T17:10:01.203Z,5.90
2019-03-11T17:12:30.541Z,5.90
2019-03-11T17:15:02.013Z,5.80
2019-03-11T17:17:31.246Z,5.90
2019-03-11T17:20:04.608Z,5.90
2019-03-11T17:22:35.183Z,6.00
2019-03-11T17:25:08.760Z,5.90
2019-03-11T17:27:37.788Z,5.90
2019-03-11T17:30:08.535Z,5.90
2019-03-11T17:32:37.700Z,5.90
2019-03-11T17:35:07.346Z,5.80
2019-03-11T17:37:36.344Z,5.80
2019-03-11T17:40:05.954Z,5.90
2019-03-11T17:42:35.051Z,5.90
2019-03-11T17:45:08.058Z,5.90
2019-03-11T17:47:37.110Z,5.90
2019-03-11T17:50:09.788Z,5.90
2019-03-11T17:52:40.845Z,6.00
2019-03-11T17:55:12.580Z,6.00
2019-03-11T17:57:45.037Z,5.80
2019-03-11T18:00:21.074Z,5.60
2019-03-11T18:02:59.831Z,5.50
2019-03-11T18:05:33.322Z,5.50
2019-03-11T18:08:07.632Z,5.50
2019-03-11T18:10:36.801Z,5.50
2019-03-11T18:13:09.986Z,5.50
2019-03-11T18:15:39.023Z,5.60
2019-03-11T18:18:10.662Z,5.60
2019-03-11T18:20:40.442Z,5.60
2019-03-11T18:23:14.325Z,5.70
2019-03-11T18:25:48.249Z,5.70
2019-03-11T18:28:19.178Z,5.70
2019-03-11T18:30:51.723Z,5.60
2019-03-11T18:33:34.059Z,5.50
2019-03-11T18:36:07.517Z,4.80
2019-03-11T18:38:39.734Z,4.30
2019-03-11T18:41:08.847Z,4.10
2019-03-11T18:43:42.830Z,4.20
2019-03-11T18:46:12.447Z,4.20
2019-03-11T18:48:43.038Z,4.30
2019-03-11T18:51:12.206Z,4.30
2019-03-11T18:53:43.500Z,4.40
2019-03-11T18:56:22.051Z,4.30
2019-03-11T18:58:50.996Z,4.30
2019-03-11T19:01:24.345Z,4.20
2019-03-11T19:03:53.309Z,4.20
2019-03-11T19:06:23.297Z,4.10
2019-03-11T19:08:54.260Z,4.10
2019-03-11T19:11:25.101Z,4.00
2019-03-11T19:13:54.170Z,3.90
2019-03-11T19:16:27.074Z,3.90
2019-03-11T19:18:58.742Z,3.90
2019-03-11T19:21:35.214Z,3.90
2019-03-11T19:24:04.373Z,3.90
2019-03-11T19:26:38.992Z,3.90
2019-03-11T19:29:10.827Z,3.90
2019-03-11T19:31:48.019Z,3.90
2019-03-11T19:34:16.940Z,4.00
2019-03-11T19:36:51.883Z,4.00
2019-03-11T19:39:24.726Z,4.00
2019-03-11T19:41:53.697Z,4.00
2019-03-11T19:44:22.843Z,4.00
2019-03-11T19:46:57.566Z,4.00
2019-03-11T19:49:26.776Z,4.10
2019-03-11T19:51:55.815Z,4.10
2019-03-11T19:54:25.985Z,4.10
2019-03-11T19:56:54.971Z,3.90
2019-03-11T19:59:24.037Z,3.80
2019-03-11T20:01:52.998Z,3.80
2019-03-11T20:04:31.105Z,3.70
2019-03-11T20:07:00.984Z,3.70
2019-03-11T20:09:29.982Z,3.80
2019-03-11T20:11:59.589Z,3.70
2019-03-11T20:14:29.524Z,3.80
2019-03-11T20:17:03.015Z,3.70
2019-03-11T20:19:31.993Z,3.70
2019-03-11T20:22:01.044Z,3.70
2019-03-11T20:24:30.214Z,3.70
2019-03-11T20:26:59.316Z,3.60
2019-03-11T20:29:33.748Z,3.60
2019-03-11T20:32:00.458Z,3.70
2019-03-11T20:34:29.466Z,3.70
2019-03-11T20:37:03.454Z,3.70
2019-03-11T20:39:32.587Z,3.80
2019-03-11T20:42:02.432Z,3.80
2019-03-11T20:44:36.343Z,3.80
2019-03-11T20:47:11.069Z,3.80
2019-03-11T20:49:40.099Z,3.80
2019-03-11T20:52:11.962Z,3.80
2019-03-11T20:54:41.064Z,3.90
2019-03-11T20:57:12.836Z,3.90
2019-03-11T20:59:42.444Z,3.90
2019-03-11T21:02:13.382Z,3.80
2019-03-11T21:04:43.709Z,3.70
2019-03-11T21:07:13.005Z,3.70
2019-03-11T21:09:44.620Z,3.60
2019-03-11T21:12:17.222Z,3.60
2019-03-11T21:14:46.451Z,3.60
2019-03-11T21:17:26.019Z,3.50
2019-03-11T21:19:45.799Z,3.50
2019-03-11T21:24:59.651Z,3.60
2019-03-11T21:27:20.756Z,3.60
2019-03-11T21:29:52.607Z,3.50
2019-03-11T21:32:21.726Z,3.60
2019-03-11T21:34:50.773Z,3.60
2019-03-11T21:37:19.940Z,3.70
2019-03-11T21:39:49.680Z,3.70
2019-03-11T21:42:23.181Z,3.80
2019-03-11T21:44:52.302Z,3.80
2019-03-11T21:47:23.789Z,3.80
2019-03-11T21:49:52.824Z,3.80
2019-03-11T21:52:25.261Z,3.90
2019-03-11T21:54:54.209Z,3.90
2019-03-11T21:57:24.351Z,3.90
2019-03-11T22:00:01.500Z,3.90
2019-03-11T22:02:30.520Z,3.90
2019-03-11T22:04:59.871Z,3.90
2019-03-11T22:07:28.882Z,3.90
2019-03-11T22:09:57.898Z,3.80
2019-03-11T22:12:26.954Z,3.80
2019-03-11T22:14:56.384Z,3.80
2019-03-11T22:17:29.437Z,3.80
2019-03-11T22:20:02.339Z,3.80
2019-03-11T22:22:31.423Z,3.80
2019-03-11T22:25:00.408Z,3.80
2019-03-11T22:27:29.440Z,3.70
2019-03-11T22:29:58.641Z,3.70
2019-03-11T22:32:30.325Z,3.70
2019-03-11T22:35:11.929Z,3.70
2019-03-11T22:37:29.452Z,3.70
2019-03-11T22:40:11.799Z,3.70
2019-03-11T22:42:46.692Z,3.70
2019-03-11T22:45:18.452Z,3.70
2019-03-11T22:47:47.617Z,3.70
2019-03-11T22:50:18.716Z,3.70
2019-03-11T22:52:50.766Z,3.70
2019-03-11T22:55:20.026Z,3.70
2019-03-11T22:57:49.179Z,3.60
2019-03-11T23:00:28.560Z,3.60
2019-03-11T23:02:58.188Z,3.60
2019-03-11T23:05:27.298Z,3.50
2019-03-11T23:07:56.442Z,3.50
2019-03-11T23:10:25.583Z,3.40
2019-03-11T23:12:54.747Z,3.40
2019-03-11T23:15:24.025Z,3.40
2019-03-11T23:17:57.485Z,3.40
2019-03-11T23:20:26.472Z,3.40
2019-03-11T23:22:57.759Z,3.40
2019-03-11T23:25:28.386Z,3.40
2019-03-11T23:27:57.843Z,3.30
2019-03-11T23:30:28.885Z,3.30
2019-03-11T23:33:00.121Z,3.20
2019-03-11T23:35:29.348Z,3.20
2019-03-11T23:38:04.116Z,3.20
2019-03-11T23:40:33.135Z,3.30
2019-03-11T23:43:02.262Z,3.30
2019-03-11T23:45:31.475Z,3.30
2019-03-11T23:48:04.671Z,3.30
2019-03-11T23:50:33.785Z,3.40
2019-03-11T23:53:02.897Z,3.30
2019-03-11T23:55:35.973Z,3.30
2019-03-11T23:58:10.905Z,3.30
